sensor_id;sensor_type;location;lat;lon;timestamp;pressure;altitude;pressure_sealevel;temperature;humidity
7075;BME280;3578;51.568;6.932;2022-11-18T00:01:04;53927.53;;;-144.14;100.00
7075;BME280;3578;51.568;6.932;2022-11-18T00:03:31;53919.50;;;-144.14;100.00
7075;BME280;3578;51.568;6.932;2022-11-18T00:05:58;53935.53;;;-144.14;100.00
7075;BME280;3578;51.568;6.932;2022-11-18T00:08:25;53935.53;;;-144.14;100.00
7075;BME280;3578;51.568;6.932;2022-11-18T00:10:52;53951.56;;;-144.14;100.00
7075;BME280;3578;51.568;6.932;2022-11-18T00:13:21;53945.56;;;-144.14;100.00
7075;BME280;3578;51.568;6.932;2022-11-18T00:16:08;53945.56;;;-144.14;100.00
7075;BME280;3578;51.568;6.932;2022-11-18T00:18:35;53949.56;;;-144.14;100.00
7075;BME280;3578;51.568;6.932;2022-11-18T00:21:04;53935.53;;;-144.14;100.00
7075;BME280;3578;51.568;6.932;2022-11-18T00:23:34;53957.59;;;-144.14;100.00
7075;BME280;3578;51.568;6.932;2022-11-18T00:26:03;53959.59;;;-144.14;100.00
7075;BME280;3578;51.568;6.932;2022-11-18T00:28:33;53983.66;;;-144.14;100.00
7075;BME280;3578;51.568;6.932;2022-11-18T00:31:04;53985.66;;;-144.14;100.00
7075;BME280;3578;51.568;6.932;2022-11-18T00:33:33;53987.66;;;-144.14;100.00
7075;BME280;3578;51.568;6.932;2022-11-18T00:36:03;53977.63;;;-144.14;100.00
7075;BME280;3578;51.568;6.932;2022-11-18T00:38:31;54011.72;;;-144.14;100.00
7075;BME280;3578;51.568;6.932;2022-11-18T00:41:00;53979.63;;;-144.14;100.00
7075;BME280;3578;51.568;6.932;2022-11-18T00:43:28;53975.63;;;-144.14;100.00
7075;BME280;3578;51.568;6.932;2022-11-18T00:45:56;54011.72;;;-144.14;100.00
7075;BME280;3578;51.568;6.932;2022-11-18T00:48:27;53997.69;;;-144.14;100.00
7075;BME280;3578;51.568;6.932;2022-11-18T00:50:57;53979.63;;;-144.14;100.00
7075;BME280;3578;51.568;6.932;2022-11-18T00:53:25;53995.69;;;-144.14;100.00
7075;BME280;3578;51.568;6.932;2022-11-18T00:55:53;53995.69;;;-144.14;100.00
7075;BME280;3578;51.568;6.932;2022-11-18T00:58:20;54009.72;;;-144.14;100.00
7075;BME280;3578;51.568;6.932;2022-11-18T01:00:51;53987.66;;;-144.14;100.00
7075;BME280;3578;51.568;6.932;2022-11-18T01:03:20;53965.59;;;-144.14;100.00
7075;BME280;3578;51.568;6.932;2022-11-18T01:05:47;54009.72;;;-144.14;100.00
7075;BME280;3578;51.568;6.932;2022-11-18T01:08:14;53995.69;;;-144.14;100.00
7075;BME280;3578;51.568;6.932;2022-11-18T01:10:42;54017.72;;;-144.14;100.00
7075;BME280;3578;51.568;6.932;2022-11-18T01:13:12;54023.75;;;-144.14;100.00
7075;BME280;3578;51.568;6.932;2022-11-18T01:15:47;54001.69;;;-144.14;100.00
7075;BME280;3578;51.568;6.932;2022-11-18T01:18:15;54003.69;;;-144.14;100.00
7075;BME280;3578;51.568;6.932;2022-11-18T01:20:45;54015.72;;;-144.14;100.00
7075;BME280;3578;51.568;6.932;2022-11-18T01:23:12;53999.69;;;-144.14;100.00
7075;BME280;3578;51.568;6.932;2022-11-18T01:25:42;53983.66;;;-144.14;100.00
7075;BME280;3578;51.568;6.932;2022-11-18T01:28:10;53977.63;;;-144.14;100.00
7075;BME280;3578;51.568;6.932;2022-11-18T01:30:39;54005.69;;;-144.14;100.00
7075;BME280;3578;51.568;6.932;2022-11-18T01:33:07;54001.69;;;-144.14;100.00
7075;BME280;3578;51.568;6.932;2022-11-18T01:35:35;53977.63;;;-144.14;100.00
7075;BME280;3578;51.568;6.932;2022-11-18T01:38:05;54007.69;;;-144.14;100.00
7075;BME280;3578;51.568;6.932;2022-11-18T01:40:33;53999.69;;;-144.14;100.00
7075;BME280;3578;51.568;6.932;2022-11-18T01:43:00;54005.69;;;-144.14;100.00
7075;BME280;3578;51.568;6.932;2022-11-18T01:45:32;53953.59;;;-144.14;100.00
7075;BME280;3578;51.568;6.932;2022-11-18T01:48:03;53959.59;;;-144.14;100.00
7075;BME280;3578;51.568;6.932;2022-11-18T01:50:36;53941.56;;;-144.14;100.00
7075;BME280;3578;51.568;6.932;2022-11-18T01:53:10;53921.50;;;-144.14;100.00
7075;BME280;3578;51.568;6.932;2022-11-18T01:55:42;53927.53;;;-144.14;100.00
7075;BME280;3578;51.568;6.932;2022-11-18T01:58:21;53899.47;;;-144.14;100.00
7075;BME280;3578;51.568;6.932;2022-11-18T02:00:49;53885.44;;;-144.14;100.00
7075;BME280;3578;51.568;6.932;2022-11-18T02:03:17;53915.50;;;-144.14;100.00
7075;BME280;3578;51.568;6.932;2022-11-18T02:05:46;53889.44;;;-144.14;100.00
7075;BME280;3578;51.568;6.932;2022-11-18T02:08:15;53881.41;;;-144.14;100.00
7075;BME280;3578;51.568;6.932;2022-11-18T02:10:43;53883.44;;;-144.14;100.00
7075;BME280;3578;51.568;6.932;2022-11-18T02:13:11;53887.44;;;-144.14;100.00
7075;BME280;3578;51.568;6.932;2022-11-18T02:15:48;53865.38;;;-144.14;100.00
7075;BME280;3578;51.568;6.932;2022-11-18T02:18:29;53831.31;;;-144.14;100.00
7075;BME280;3578;51.568;6.932;2022-11-18T02:21:10;53875.41;;;-144.14;100.00
7075;BME280;3578;51.568;6.932;2022-11-18T02:24:26;53875.41;;;-144.14;100.00
7075;BME280;3578;51.568;6.932;2022-11-18T02:27:31;53887.44;;;-144.14;100.00
7075;BME280;3578;51.568;6.932;2022-11-18T02:30:05;53869.41;;;-144.14;100.00
7075;BME280;3578;51.568;6.932;2022-11-18T02:32:39;53899.47;;;-144.14;100.00
7075;BME280;3578;51.568;6.932;2022-11-18T02:35:15;53871.41;;;-144.14;100.00
7075;BME280;3578;51.568;6.932;2022-11-18T02:37:47;53903.47;;;-144.14;100.00
7075;BME280;3578;51.568;6.932;2022-11-18T02:40:20;53895.44;;;-144.14;100.00
7075;BME280;3578;51.568;6.932;2022-11-18T02:42:53;53917.50;;;-144.14;100.00
7075;BME280;3578;51.568;6.932;2022-11-18T02:45:25;53917.50;;;-144.14;100.00
7075;BME280;3578;51.568;6.932;2022-11-18T02:47:54;53907.47;;;-144.14;100.00
7075;BME280;3578;51.568;6.932;2022-11-18T02:50:25;53889.44;;;-144.14;100.00
7075;BME280;3578;51.568;6.932;2022-11-18T02:52:58;53883.44;;;-144.14;100.00
7075;BME280;3578;51.568;6.932;2022-11-18T02:55:29;53903.47;;;-144.14;100.00
7075;BME280;3578;51.568;6.932;2022-11-18T02:57:58;53863.38;;;-144.14;100.00
7075;BME280;3578;51.568;6.932;2022-11-18T03:00:28;53895.44;;;-144.14;100.00
7075;BME280;3578;51.568;6.932;2022-11-18T03:02:54;53887.44;;;-144.14;100.00
7075;BME280;3578;51.568;6.932;2022-11-18T03:05:29;53887.44;;;-144.14;100.00
7075;BME280;3578;51.568;6.932;2022-11-18T03:08:05;53891.44;;;-144.14;100.00
7075;BME280;3578;51.568;6.932;2022-11-18T03:10:41;53865.38;;;-144.14;100.00
7075;BME280;3578;51.568;6.932;2022-11-18T03:13:15;53891.44;;;-144.14;100.00
7075;BME280;3578;51.568;6.932;2022-11-18T03:15:54;53871.41;;;-144.14;100.00
7075;BME280;3578;51.568;6.932;2022-11-18T03:18:28;53869.41;;;-144.14;100.00
7075;BME280;3578;51.568;6.932;2022-11-18T03:21:03;53855.38;;;-144.14;100.00
7075;BME280;3578;51.568;6.932;2022-11-18T03:23:37;53891.44;;;-144.14;100.00
7075;BME280;3578;51.568;6.932;2022-11-18T03:26:11;53885.44;;;-144.14;100.00
7075;BME280;3578;51.568;6.932;2022-11-18T03:28:43;53907.47;;;-144.14;100.00
7075;BME280;3578;51.568;6.932;2022-11-18T03:31:19;53915.50;;;-144.14;100.00
7075;BME280;3578;51.568;6.932;2022-11-18T03:33:53;53907.47;;;-144.14;100.00
7075;BME280;3578;51.568;6.932;2022-11-18T03:36:26;53865.38;;;-144.14;100.00
7075;BME280;3578;51.568;6.932;2022-11-18T03:38:58;53875.41;;;-144.14;100.00
7075;BME280;3578;51.568;6.932;2022-11-18T03:41:28;53879.41;;;-144.14;100.00
7075;BME280;3578;51.568;6.932;2022-11-18T03:44:04;53869.41;;;-144.14;100.00
7075;BME280;3578;51.568;6.932;2022-11-18T03:46:37;53883.44;;;-144.14;100.00
7075;BME280;3578;51.568;6.932;2022-11-18T03:49:08;53911.50;;;-144.14;100.00
7075;BME280;3578;51.568;6.932;2022-11-18T03:51:42;53893.44;;;-144.14;100.00
7075;BME280;3578;51.568;6.932;2022-11-18T03:54:13;53857.38;;;-144.14;100.00
7075;BME280;3578;51.568;6.932;2022-11-18T03:56:47;53907.47;;;-144.14;100.00
7075;BME280;3578;51.568;6.932;2022-11-18T03:59:19;53875.41;;;-144.14;100.00
7075;BME280;3578;51.568;6.932;2022-11-18T04:01:51;53869.41;;;-144.14;100.00
7075;BME280;3578;51.568;6.932;2022-11-18T04:04:20;53855.38;;;-144.14;100.00
7075;BME280;3578;51.568;6.932;2022-11-18T04:06:50;53851.34;;;-144.14;100.00
7075;BME280;3578;51.568;6.932;2022-11-18T04:09:25;53861.38;;;-144.14;100.00
7075;BME280;3578;51.568;6.932;2022-11-18T04:12:01;53853.34;;;-144.14;100.00
7075;BME280;3578;51.568;6.932;2022-11-18T04:14:31;53849.34;;;-144.14;100.00
7075;BME280;3578;51.568;6.932;2022-11-18T04:17:06;53825.28;;;-144.14;100.00
7075;BME280;3578;51.568;6.932;2022-11-18T04:19:34;53845.34;;;-144.14;100.00
7075;BME280;3578;51.568;6.932;2022-11-18T04:22:01;53843.34;;;-144.14;100.00
7075;BME280;3578;51.568;6.932;2022-11-18T04:24:28;53839.31;;;-144.14;100.00
7075;BME280;3578;51.568;6.932;2022-11-18T04:26:55;53843.34;;;-144.14;100.00
7075;BME280;3578;51.568;6.932;2022-11-18T04:29:23;53865.38;;;-144.14;100.00
7075;BME280;3578;51.568;6.932;2022-11-18T04:31:50;53843.34;;;-144.14;100.00
7075;BME280;3578;51.568;6.932;2022-11-18T04:34:18;53785.22;;;-144.14;100.00
7075;BME280;3578;51.568;6.932;2022-11-18T04:36:45;53839.31;;;-144.14;100.00
7075;BME280;3578;51.568;6.932;2022-11-18T04:39:12;53869.41;;;-144.14;100.00
7075;BME280;3578;51.568;6.932;2022-11-18T04:41:39;53877.41;;;-144.14;100.00
7075;BME280;3578;51.568;6.932;2022-11-18T04:44:22;53827.31;;;-144.14;100.00
7075;BME280;3578;51.568;6.932;2022-11-18T04:46:49;53811.25;;;-144.14;100.00
7075;BME280;3578;51.568;6.932;2022-11-18T04:49:17;53847.34;;;-144.14;100.00
7075;BME280;3578;51.568;6.932;2022-11-18T04:51:45;53845.34;;;-144.14;100.00
7075;BME280;3578;51.568;6.932;2022-11-18T04:54:13;53807.25;;;-144.14;100.00
7075;BME280;3578;51.568;6.932;2022-11-18T04:56:42;53795.22;;;-144.14;100.00
7075;BME280;3578;51.568;6.932;2022-11-18T04:59:09;53777.19;;;-144.14;100.00
7075;BME280;3578;51.568;6.932;2022-11-18T05:01:36;53799.25;;;-144.14;100.00
7075;BME280;3578;51.568;6.932;2022-11-18T05:04:04;53799.25;;;-144.14;100.00
7075;BME280;3578;51.568;6.932;2022-11-18T05:06:33;53833.31;;;-144.14;100.00
7075;BME280;3578;51.568;6.932;2022-11-18T05:09:01;53803.25;;;-144.14;100.00
7075;BME280;3578;51.568;6.932;2022-11-18T05:11:28;53841.34;;;-144.14;100.00
7075;BME280;3578;51.568;6.932;2022-11-18T05:14:12;53811.25;;;-144.14;100.00
7075;BME280;3578;51.568;6.932;2022-11-18T05:16:40;53843.34;;;-144.14;100.00
7075;BME280;3578;51.568;6.932;2022-11-18T05:19:07;53821.28;;;-144.14;100.00
7075;BME280;3578;51.568;6.932;2022-11-18T05:21:36;53835.31;;;-144.14;100.00
7075;BME280;3578;51.568;6.932;2022-11-18T05:24:04;53855.38;;;-144.14;100.00
7075;BME280;3578;51.568;6.932;2022-11-18T05:26:31;53865.38;;;-144.14;100.00
7075;BME280;3578;51.568;6.932;2022-11-18T05:28:58;53847.34;;;-144.14;100.00
7075;BME280;3578;51.568;6.932;2022-11-18T05:31:25;53823.28;;;-144.14;100.00
7075;BME280;3578;51.568;6.932;2022-11-18T05:33:52;53859.38;;;-144.14;100.00
7075;BME280;3578;51.568;6.932;2022-11-18T05:36:20;53839.31;;;-144.14;100.00
7075;BME280;3578;51.568;6.932;2022-11-18T05:38:48;53863.38;;;-144.14;100.00
7075;BME280;3578;51.568;6.932;2022-11-18T05:41:16;53881.41;;;-144.14;100.00
7075;BME280;3578;51.568;6.932;2022-11-18T05:43:57;53815.28;;;-144.14;100.00
7075;BME280;3578;51.568;6.932;2022-11-18T05:46:24;53843.34;;;-144.14;100.00
7075;BME280;3578;51.568;6.932;2022-11-18T05:48:52;53839.31;;;-144.14;100.00
7075;BME280;3578;51.568;6.932;2022-11-18T05:51:19;53869.41;;;-144.14;100.00
7075;BME280;3578;51.568;6.932;2022-11-18T05:53:50;53885.44;;;-144.14;100.00
7075;BME280;3578;51.568;6.932;2022-11-18T05:56:19;53817.28;;;-144.14;100.00
7075;BME280;3578;51.568;6.932;2022-11-18T05:58:48;53871.41;;;-144.14;100.00
7075;BME280;3578;51.568;6.932;2022-11-18T06:01:18;53831.31;;;-144.14;100.00
7075;BME280;3578;51.568;6.932;2022-11-18T06:03:46;53871.41;;;-144.14;100.00
7075;BME280;3578;51.568;6.932;2022-11-18T06:06:17;53883.44;;;-144.14;100.00
7075;BME280;3578;51.568;6.932;2022-11-18T06:08:53;53859.38;;;-144.14;100.00
7075;BME280;3578;51.568;6.932;2022-11-18T06:11:22;53883.44;;;-144.14;100.00
7075;BME280;3578;51.568;6.932;2022-11-18T06:13:54;53869.41;;;-144.14;100.00
7075;BME280;3578;51.568;6.932;2022-11-18T06:16:27;53845.34;;;-144.14;100.00
7075;BME280;3578;51.568;6.932;2022-11-18T06:18:57;53821.28;;;-144.14;100.00
7075;BME280;3578;51.568;6.932;2022-11-18T06:21:24;53811.25;;;-144.14;100.00
7075;BME280;3578;51.568;6.932;2022-11-18T06:23:53;53803.25;;;-144.14;100.00
7075;BME280;3578;51.568;6.932;2022-11-18T06:26:21;53775.19;;;-144.14;100.00
7075;BME280;3578;51.568;6.932;2022-11-18T06:28:48;53747.13;;;-144.14;100.00
7075;BME280;3578;51.568;6.932;2022-11-18T06:31:15;53725.06;;;-144.14;100.00
7075;BME280;3578;51.568;6.932;2022-11-18T06:33:42;53755.13;;;-144.14;100.00
7075;BME280;3578;51.568;6.932;2022-11-18T06:36:09;53823.28;;;-144.14;100.00
7075;BME280;3578;51.568;6.932;2022-11-18T06:38:36;53799.25;;;-144.14;100.00
7075;BME280;3578;51.568;6.932;2022-11-18T06:41:05;53809.25;;;-144.14;100.00
7075;BME280;3578;51.568;6.932;2022-11-18T06:43:32;53857.38;;;-144.14;100.00
7075;BME280;3578;51.568;6.932;2022-11-18T06:46:08;53795.22;;;-144.14;100.00
7075;BME280;3578;51.568;6.932;2022-11-18T06:48:55;53835.31;;;-144.14;100.00
7075;BME280;3578;51.568;6.932;2022-11-18T06:51:23;53823.28;;;-144.14;100.00
7075;BME280;3578;51.568;6.932;2022-11-18T06:53:50;53833.31;;;-144.14;100.00
7075;BME280;3578;51.568;6.932;2022-11-18T06:56:20;53831.31;;;-144.14;100.00
7075;BME280;3578;51.568;6.932;2022-11-18T06:58:51;53847.34;;;-144.14;100.00
7075;BME280;3578;51.568;6.932;2022-11-18T07:01:21;53907.47;;;-144.14;100.00
7075;BME280;3578;51.568;6.932;2022-11-18T07:03:48;53899.47;;;-144.14;100.00
7075;BME280;3578;51.568;6.932;2022-11-18T07:06:17;53891.44;;;-144.14;100.00
7075;BME280;3578;51.568;6.932;2022-11-18T07:08:45;53849.34;;;-144.14;100.00
7075;BME280;3578;51.568;6.932;2022-11-18T07:11:14;53875.41;;;-144.14;100.00
7075;BME280;3578;51.568;6.932;2022-11-18T07:13:44;53903.47;;;-144.14;100.00
7075;BME280;3578;51.568;6.932;2022-11-18T07:16:13;53891.44;;;-144.14;100.00
7075;BME280;3578;51.568;6.932;2022-11-18T07:18:42;53907.47;;;-144.14;100.00
7075;BME280;3578;51.568;6.932;2022-11-18T07:21:12;53919.50;;;-144.14;100.00
7075;BME280;3578;51.568;6.932;2022-11-18T07:23:39;53919.50;;;-144.14;100.00
7075;BME280;3578;51.568;6.932;2022-11-18T07:26:07;53909.47;;;-144.14;100.00
7075;BME280;3578;51.568;6.932;2022-11-18T07:28:34;53915.50;;;-144.14;100.00
7075;BME280;3578;51.568;6.932;2022-11-18T07:31:04;53893.44;;;-144.14;100.00
7075;BME280;3578;51.568;6.932;2022-11-18T07:33:32;53915.50;;;-144.14;100.00
7075;BME280;3578;51.568;6.932;2022-11-18T07:36:00;53895.44;;;-144.14;100.00
7075;BME280;3578;51.568;6.932;2022-11-18T07:38:27;53917.50;;;-144.14;100.00
7075;BME280;3578;51.568;6.932;2022-11-18T07:40:55;53897.47;;;-144.14;100.00
7075;BME280;3578;51.568;6.932;2022-11-18T07:43:22;53917.50;;;-144.14;100.00
7075;BME280;3578;51.568;6.932;2022-11-18T07:45:48;53929.53;;;-144.14;100.00
7075;BME280;3578;51.568;6.932;2022-11-18T07:48:17;53889.44;;;-144.14;100.00
7075;BME280;3578;51.568;6.932;2022-11-18T07:50:44;53939.56;;;-144.14;100.00
7075;BME280;3578;51.568;6.932;2022-11-18T07:53:10;53897.47;;;-144.14;100.00
7075;BME280;3578;51.568;6.932;2022-11-18T07:55:37;53895.44;;;-144.14;100.00
7075;BME280;3578;51.568;6.932;2022-11-18T07:58:04;53931.53;;;-144.14;100.00
7075;BME280;3578;51.568;6.932;2022-11-18T08:00:31;53939.56;;;-144.14;100.00
7075;BME280;3578;51.568;6.932;2022-11-18T08:02:58;53879.41;;;-144.14;100.00
7075;BME280;3578;51.568;6.932;2022-11-18T08:05:27;53947.56;;;-144.14;100.00
7075;BME280;3578;51.568;6.932;2022-11-18T08:07:54;53943.56;;;-144.14;100.00
7075;BME280;3578;51.568;6.932;2022-11-18T08:10:21;53945.56;;;-144.14;100.00
7075;BME280;3578;51.568;6.932;2022-11-18T08:12:47;53969.63;;;-144.14;100.00
7075;BME280;3578;51.568;6.932;2022-11-18T08:15:14;53967.63;;;-144.14;100.00
7075;BME280;3578;51.568;6.932;2022-11-18T08:17:41;53931.53;;;-144.14;100.00
7075;BME280;3578;51.568;6.932;2022-11-18T08:20:10;53965.59;;;-144.14;100.00
7075;BME280;3578;51.568;6.932;2022-11-18T08:22:38;53967.63;;;-144.14;100.00
7075;BME280;3578;51.568;6.932;2022-11-18T08:25:07;53929.53;;;-144.14;100.00
7075;BME280;3578;51.568;6.932;2022-11-18T08:27:34;53957.59;;;-144.14;100.00
7075;BME280;3578;51.568;6.932;2022-11-18T08:30:01;53931.53;;;-144.14;100.00
7075;BME280;3578;51.568;6.932;2022-11-18T08:32:28;53965.59;;;-144.14;100.00
7075;BME280;3578;51.568;6.932;2022-11-18T08:34:55;53973.63;;;-144.14;100.00
7075;BME280;3578;51.568;6.932;2022-11-18T08:37:22;53967.63;;;-144.14;100.00
7075;BME280;3578;51.568;6.932;2022-11-18T08:39:50;54003.69;;;-144.14;100.00
7075;BME280;3578;51.568;6.932;2022-11-18T08:42:18;54023.75;;;-144.14;100.00
7075;BME280;3578;51.568;6.932;2022-11-18T08:44:47;54027.75;;;-144.14;100.00
7075;BME280;3578;51.568;6.932;2022-11-18T08:47:14;54011.72;;;-144.14;100.00
7075;BME280;3578;51.568;6.932;2022-11-18T08:49:40;54037.78;;;-144.14;100.00
7075;BME280;3578;51.568;6.932;2022-11-18T08:52:08;54043.78;;;-144.14;100.00
7075;BME280;3578;51.568;6.932;2022-11-18T08:54:35;54031.75;;;-144.14;100.00
7075;BME280;3578;51.568;6.932;2022-11-18T08:57:04;54035.75;;;-144.14;100.00
7075;BME280;3578;51.568;6.932;2022-11-18T08:59:31;54075.84;;;-144.14;100.00
7075;BME280;3578;51.568;6.932;2022-11-18T09:01:57;54063.84;;;-144.14;100.00
7075;BME280;3578;51.568;6.932;2022-11-18T09:04:24;54039.78;;;-144.14;100.00
7075;BME280;3578;51.568;6.932;2022-11-18T09:06:51;54047.78;;;-144.14;100.00
7075;BME280;3578;51.568;6.932;2022-11-18T09:09:18;54055.81;;;-144.14;100.00
7075;BME280;3578;51.568;6.932;2022-11-18T09:11:45;54039.78;;;-144.14;100.00
7075;BME280;3578;51.568;6.932;2022-11-18T09:14:13;54027.75;;;-144.14;100.00
7075;BME280;3578;51.568;6.932;2022-11-18T09:16:41;54067.84;;;-144.14;100.00
7075;BME280;3578;51.568;6.932;2022-11-18T09:19:08;54053.81;;;-144.14;100.00
7075;BME280;3578;51.568;6.932;2022-11-18T09:21:35;54033.75;;;-144.14;100.00
7075;BME280;3578;51.568;6.932;2022-11-18T09:24:03;54093.91;;;-144.14;100.00
7075;BME280;3578;51.568;6.932;2022-11-18T09:26:30;54069.84;;;-144.14;100.00
7075;BME280;3578;51.568;6.932;2022-11-18T09:28:57;54063.84;;;-144.14;100.00
7075;BME280;3578;51.568;6.932;2022-11-18T09:31:26;54079.88;;;-144.14;100.00
7075;BME280;3578;51.568;6.932;2022-11-18T09:33:53;54075.84;;;-144.14;100.00
7075;BME280;3578;51.568;6.932;2022-11-18T09:36:22;54111.94;;;-144.14;100.00
7075;BME280;3578;51.568;6.932;2022-11-18T09:38:50;54083.88;;;-144.14;100.00
7075;BME280;3578;51.568;6.932;2022-11-18T09:41:31;54075.84;;;-144.14;100.00
7075;BME280;3578;51.568;6.932;2022-11-18T09:47:17;54150.03;;;-144.14;100.00
7075;BME280;3578;51.568;6.932;2022-11-18T09:49:46;54142.00;;;-144.14;99.99
7075;BME280;3578;51.568;6.932;2022-11-18T09:52:18;54099.91;;;-144.14;100.00
7075;BME280;3578;51.568;6.932;2022-11-18T09:54:47;54127.97;;;-144.14;99.69
7075;BME280;3578;51.568;6.932;2022-11-18T09:57:16;54160.06;;;-144.14;99.44
7075;BME280;3578;51.568;6.932;2022-11-18T09:59:43;54170.06;;;-144.14;99.61
7075;BME280;3578;51.568;6.932;2022-11-18T10:02:37;54206.16;;;-144.14;98.85
7075;BME280;3578;51.568;6.932;2022-11-18T10:05:15;54224.19;;;-144.14;98.75
7075;BME280;3578;51.568;6.932;2022-11-18T10:07:53;54248.25;;;-144.14;98.39
7075;BME280;3578;51.568;6.932;2022-11-18T10:10:26;54254.28;;;-144.14;97.29
7075;BME280;3578;51.568;6.932;2022-11-18T10:13:01;54268.31;;;-144.14;96.92
7075;BME280;3578;51.568;6.932;2022-11-18T10:15:35;54252.25;;;-144.14;96.72
7075;BME280;3578;51.568;6.932;2022-11-18T10:18:18;54276.31;;;-144.14;95.22
7075;BME280;3578;51.568;6.932;2022-11-18T10:20:55;54238.22;;;-144.14;95.25
7075;BME280;3578;51.568;6.932;2022-11-18T10:23:32;54248.25;;;-144.14;95.23
7075;BME280;3578;51.568;6.932;2022-11-18T10:26:00;54202.16;;;-144.14;95.36
7075;BME280;3578;51.568;6.932;2022-11-18T10:28:29;54158.03;;;-144.14;96.22
7075;BME280;3578;51.568;6.932;2022-11-18T10:31:04;54134.00;;;-144.14;96.75
7075;BME280;3578;51.568;6.932;2022-11-18T10:33:32;54138.00;;;-144.14;96.96
7075;BME280;3578;51.568;6.932;2022-11-18T10:36:20;54144.00;;;-144.14;97.49
7075;BME280;3578;51.568;6.932;2022-11-18T10:39:12;54142.00;;;-144.14;98.23
7075;BME280;3578;51.568;6.932;2022-11-18T10:41:45;54182.09;;;-144.14;98.29
7075;BME280;3578;51.568;6.932;2022-11-18T10:44:33;54228.22;;;-144.14;98.27
7075;BME280;3578;51.568;6.932;2022-11-18T10:47:30;54262.28;;;-144.14;97.47
7075;BME280;3578;51.568;6.932;2022-11-18T10:50:00;54246.25;;;-144.14;96.74
7075;BME280;3578;51.568;6.932;2022-11-18T10:52:29;54288.34;;;-144.14;96.10
7075;BME280;3578;51.568;6.932;2022-11-18T10:55:19;54280.34;;;-144.14;95.96
7075;BME280;3578;51.568;6.932;2022-11-18T10:57:49;54290.34;;;-144.14;95.53
7075;BME280;3578;51.568;6.932;2022-11-18T11:00:44;54220.19;;;-144.14;95.02
7075;BME280;3578;51.568;6.932;2022-11-18T11:03:34;54264.28;;;-144.14;95.42
7075;BME280;3578;51.568;6.932;2022-11-18T11:06:35;54298.38;;;-144.14;94.97
7075;BME280;3578;51.568;6.932;2022-11-18T11:09:07;54276.31;;;-144.14;94.18
7075;BME280;3578;51.568;6.932;2022-11-18T11:11:36;54296.38;;;-144.14;94.09
7075;BME280;3578;51.568;6.932;2022-11-18T11:14:19;54246.25;;;-144.14;94.41
7075;BME280;3578;51.568;6.932;2022-11-18T11:16:56;54288.34;;;-144.14;94.16
7075;BME280;3578;51.568;6.932;2022-11-18T11:19:34;54318.41;;;-144.14;94.09
7075;BME280;3578;51.568;6.932;2022-11-18T11:22:09;54318.41;;;-144.14;94.05
7075;BME280;3578;51.568;6.932;2022-11-18T11:24:37;54360.53;;;-144.14;93.12
7075;BME280;3578;51.568;6.932;2022-11-18T11:27:22;54364.53;;;-144.14;91.79
7075;BME280;3578;51.568;6.932;2022-11-18T11:30:07;54392.59;;;-144.14;90.98
7075;BME280;3578;51.568;6.932;2022-11-18T11:33:02;54398.63;;;-144.14;90.96
7075;BME280;3578;51.568;6.932;2022-11-18T11:35:36;54340.47;;;-144.14;91.88
7075;BME280;3578;51.568;6.932;2022-11-18T11:38:17;54322.44;;;-144.14;92.16
7075;BME280;3578;51.568;6.932;2022-11-18T11:40:59;54300.38;;;-144.14;90.40
7075;BME280;3578;51.568;6.932;2022-11-18T11:43:37;54304.38;;;-144.14;91.32
7075;BME280;3578;51.568;6.932;2022-11-18T11:46:25;54268.31;;;-144.14;92.01
7075;BME280;3578;51.568;6.932;2022-11-18T11:49:01;54314.41;;;-144.14;91.35
7075;BME280;3578;51.568;6.932;2022-11-18T11:51:35;54288.34;;;-144.14;91.68
7075;BME280;3578;51.568;6.932;2022-11-18T11:54:22;54302.38;;;-144.14;91.39
7075;BME280;3578;51.568;6.932;2022-11-18T11:56:54;54296.38;;;-144.14;91.02
7075;BME280;3578;51.568;6.932;2022-11-18T11:59:31;54304.38;;;-144.14;90.51
7075;BME280;3578;51.568;6.932;2022-11-18T12:02:22;54256.28;;;-144.14;90.96
7075;BME280;3578;51.568;6.932;2022-11-18T12:04:52;54248.25;;;-144.14;90.87
7075;BME280;3578;51.568;6.932;2022-11-18T12:07:25;54284.34;;;-144.14;90.44
7075;BME280;3578;51.568;6.932;2022-11-18T12:10:18;54276.31;;;-144.14;91.63
7075;BME280;3578;51.568;6.932;2022-11-18T12:12:53;54272.31;;;-144.14;92.61
7075;BME280;3578;51.568;6.932;2022-11-18T12:15:38;54264.28;;;-144.14;92.35
7075;BME280;3578;51.568;6.932;2022-11-18T12:18:14;54258.28;;;-144.14;92.24
7075;BME280;3578;51.568;6.932;2022-11-18T12:20:48;54228.22;;;-144.14;92.31
7075;BME280;3578;51.568;6.932;2022-11-18T12:23:18;54240.25;;;-144.14;92.72
7075;BME280;3578;51.568;6.932;2022-11-18T12:26:00;54266.31;;;-144.14;93.03
7075;BME280;3578;51.568;6.932;2022-11-18T12:28:32;54264.28;;;-144.14;93.07
7075;BME280;3578;51.568;6.932;2022-11-18T12:31:40;54260.28;;;-144.14;93.96
7075;BME280;3578;51.568;6.932;2022-11-18T12:34:31;54260.28;;;-144.14;93.79
7075;BME280;3578;51.568;6.932;2022-11-18T12:37:39;54256.28;;;-144.14;93.44
7075;BME280;3578;51.568;6.932;2022-11-18T12:40:29;54290.34;;;-144.14;93.33
7075;BME280;3578;51.568;6.932;2022-11-18T12:42:58;54276.31;;;-144.14;92.41
7075;BME280;3578;51.568;6.932;2022-11-18T12:45:51;54256.28;;;-144.14;92.38
7075;BME280;3578;51.568;6.932;2022-11-18T12:48:36;54234.22;;;-144.14;92.16
7075;BME280;3578;51.568;6.932;2022-11-18T12:51:40;54248.25;;;-144.14;91.82
7075;BME280;3578;51.568;6.932;2022-11-18T12:54:30;54272.31;;;-144.14;92.27
7075;BME280;3578;51.568;6.932;2022-11-18T12:57:01;54240.25;;;-144.14;92.72
7075;BME280;3578;51.568;6.932;2022-11-18T12:59:33;54236.22;;;-144.14;92.71
7075;BME280;3578;51.568;6.932;2022-11-18T13:02:19;54228.22;;;-144.14;93.52
7075;BME280;3578;51.568;6.932;2022-11-18T13:05:06;54264.28;;;-144.14;93.66
7075;BME280;3578;51.568;6.932;2022-11-18T13:07:42;54248.25;;;-144.14;93.46
7075;BME280;3578;51.568;6.932;2022-11-18T13:10:31;54256.28;;;-144.14;93.75
7075;BME280;3578;51.568;6.932;2022-11-18T13:12:59;54218.19;;;-144.14;93.99
7075;BME280;3578;51.568;6.932;2022-11-18T13:15:29;54252.25;;;-144.14;94.09
7075;BME280;3578;51.568;6.932;2022-11-18T13:18:16;54276.31;;;-144.14;94.22
7075;BME280;3578;51.568;6.932;2022-11-18T13:20:54;54252.25;;;-144.14;94.25
7075;BME280;3578;51.568;6.932;2022-11-18T13:23:28;54246.25;;;-144.14;94.40